sensor_id;sensor_type;location;lat;lon;timestamp;pressure;altitude;pressure_sealevel;temperature;humidity
66196;BME280;53000;45.182;5.736;2023-06-26T00:00:11;99331.16;;;26.83;42.81
66196;BME280;53000;45.182;5.736;2023-06-26T00:02:37;99325.28;;;26.84;42.20
66196;BME280;53000;45.182;5.736;2023-06-26T00:05:04;99326.72;;;26.87;42.56
66196;BME280;53000;45.182;5.736;2023-06-26T00:07:30;99329.19;;;26.88;42.06
66196;BME280;53000;45.182;5.736;2023-06-26T00:09:57;99344.19;;;26.92;42.67
66196;BME280;53000;45.182;5.736;2023-06-26T00:12:22;99337.25;;;26.90;42.39
66196;BME280;53000;45.182;5.736;2023-06-26T00:14:47;99333.09;;;26.87;42.01
66196;BME280;53000;45.182;5.736;2023-06-26T00:17:13;99337.25;;;26.85;43.16
66196;BME280;53000;45.182;5.736;2023-06-26T00:19:38;99336.69;;;26.83;43.17
66196;BME280;53000;45.182;5.736;2023-06-26T00:22:03;99339.75;;;26.81;42.79
66196;BME280;53000;45.182;5.736;2023-06-26T00:24:29;99339.75;;;26.81;42.10
66196;BME280;53000;45.182;5.736;2023-06-26T00:26:54;99342.22;;;26.78;43.02
66196;BME280;53000;45.182;5.736;2023-06-26T00:29:19;99349.72;;;26.77;43.41
66196;BME280;53000;45.182;5.736;2023-06-26T00:31:45;99351.41;;;26.78;42.84
66196;BME280;53000;45.182;5.736;2023-06-26T00:34:11;99344.19;;;26.77;44.45
66196;BME280;53000;45.182;5.736;2023-06-26T00:36:36;99343.88;;;26.73;43.91
66196;BME280;53000;45.182;5.736;2023-06-26T00:39:01;99337.50;;;26.73;43.52
66196;BME280;53000;45.182;5.736;2023-06-26T00:41:28;99354.16;;;26.73;43.25
66196;BME280;53000;45.182;5.736;2023-06-26T00:43:54;99348.91;;;26.71;43.52
66196;BME280;53000;45.182;5.736;2023-06-26T00:46:19;99350.25;;;26.69;43.89
66196;BME280;53000;45.182;5.736;2023-06-26T00:48:46;99349.69;;;26.67;43.40
66196;BME280;53000;45.182;5.736;2023-06-26T00:51:13;99351.66;;;26.66;44.05
66196;BME280;53000;45.182;5.736;2023-06-26T00:53:39;99346.38;;;26.65;43.78
66196;BME280;53000;45.182;5.736;2023-06-26T00:56:05;99351.09;;;26.64;43.93
66196;BME280;53000;45.182;5.736;2023-06-26T00:58:30;99346.09;;;26.61;43.83
66196;BME280;53000;45.182;5.736;2023-06-26T01:00:56;99348.31;;;26.59;44.19
66196;BME280;53000;45.182;5.736;2023-06-26T01:03:25;99349.09;;;26.55;43.95
66196;BME280;53000;45.182;5.736;2023-06-26T01:05:51;99340.75;;;26.49;44.47
66196;BME280;53000;45.182;5.736;2023-06-26T01:08:18;99335.44;;;26.43;44.39
66196;BME280;53000;45.182;5.736;2023-06-26T01:10:45;99333.78;;;26.42;44.41
66196;BME280;53000;45.182;5.736;2023-06-26T01:13:13;99340.44;;;26.41;44.73
66196;BME280;53000;45.182;5.736;2023-06-26T01:15:39;99336.28;;;26.38;45.07
66196;BME280;53000;45.182;5.736;2023-06-26T01:18:05;99333.75;;;26.31;45.78
66196;BME280;53000;45.182;5.736;2023-06-26T01:20:32;99335.09;;;26.19;45.02
66196;BME280;53000;45.182;5.736;2023-06-26T01:26:17;99335.84;;;26.04;44.88
66196;BME280;53000;45.182;5.736;2023-06-26T01:28:45;99339.69;;;25.98;45.34
66196;BME280;53000;45.182;5.736;2023-06-26T01:31:11;99337.47;;;25.95;45.72
66196;BME280;53000;45.182;5.736;2023-06-26T01:33:37;99344.94;;;25.89;45.55
66196;BME280;53000;45.182;5.736;2023-06-26T01:36:03;99339.03;;;25.85;45.00
66196;BME280;53000;45.182;5.736;2023-06-26T01:38:29;99344.88;;;25.84;45.11
66196;BME280;53000;45.182;5.736;2023-06-26T01:40:54;99344.31;;;25.82;45.32
66196;BME280;53000;45.182;5.736;2023-06-26T01:46:06;99344.25;;;25.77;46.22
66196;BME280;53000;45.182;5.736;2023-06-26T01:48:44;99360.63;;;25.73;46.48
66196;BME280;53000;45.182;5.736;2023-06-26T01:51:14;99362.75;;;25.66;46.54
66196;BME280;53000;45.182;5.736;2023-06-26T01:53:45;99358.28;;;25.60;46.22
66196;BME280;53000;45.182;5.736;2023-06-26T01:56:13;99352.75;;;25.60;45.75
66196;BME280;53000;45.182;5.736;2023-06-26T01:58:43;99359.97;;;25.61;46.13
66196;BME280;53000;45.182;5.736;2023-06-26T02:01:10;99357.75;;;25.63;45.89
66196;BME280;53000;45.182;5.736;2023-06-26T02:03:36;99358.59;;;25.63;45.97
66196;BME280;53000;45.182;5.736;2023-06-26T02:06:01;99356.09;;;25.62;46.19
66196;BME280;53000;45.182;5.736;2023-06-26T02:08:26;99357.19;;;25.61;46.20
66196;BME280;53000;45.182;5.736;2023-06-26T02:10:52;99366.34;;;25.61;46.38
66196;BME280;53000;45.182;5.736;2023-06-26T02:13:17;99370.22;;;25.60;46.78
66196;BME280;53000;45.182;5.736;2023-06-26T02:15:42;99361.63;;;25.62;47.43
66196;BME280;53000;45.182;5.736;2023-06-26T02:18:08;99367.16;;;25.62;46.53
66196;BME280;53000;45.182;5.736;2023-06-26T02:20:33;99368.59;;;25.64;46.39
66196;BME280;53000;45.182;5.736;2023-06-26T02:22:58;99373.84;;;25.66;46.63
66196;BME280;53000;45.182;5.736;2023-06-26T02:25:24;99373.28;;;25.64;46.88
66196;BME280;53000;45.182;5.736;2023-06-26T02:27:49;99370.50;;;25.64;47.30
66196;BME280;53000;45.182;5.736;2023-06-26T02:30:15;99368.81;;;25.58;47.85
66196;BME280;53000;45.182;5.736;2023-06-26T02:32:40;99367.88;;;25.47;46.82
66196;BME280;53000;45.182;5.736;2023-06-26T02:35:06;99364.53;;;25.40;47.94
66196;BME280;53000;45.182;5.736;2023-06-26T02:37:31;99376.72;;;25.39;47.24
66196;BME280;53000;45.182;5.736;2023-06-26T02:39:57;99375.56;;;25.35;47.56
66196;BME280;53000;45.182;5.736;2023-06-26T02:42:22;99373.31;;;25.32;47.84
66196;BME280;53000;45.182;5.736;2023-06-26T02:44:47;99381.06;;;25.29;47.43
66196;BME280;53000;45.182;5.736;2023-06-26T02:47:13;99376.63;;;25.28;47.00
66196;BME280;53000;45.182;5.736;2023-06-26T02:49:38;99373.84;;;25.28;47.29
66196;BME280;53000;45.182;5.736;2023-06-26T02:52:03;99367.41;;;25.23;47.83
66196;BME280;53000;45.182;5.736;2023-06-26T02:54:29;99375.22;;;25.26;46.92
66196;BME280;53000;45.182;5.736;2023-06-26T02:56:54;99379.63;;;25.22;47.84
66196;BME280;53000;45.182;5.736;2023-06-26T02:59:19;99374.56;;;25.19;47.67
66196;BME280;53000;45.182;5.736;2023-06-26T03:01:45;99375.38;;;25.19;47.82
66196;BME280;53000;45.182;5.736;2023-06-26T03:04:10;99368.19;;;25.18;47.94
66196;BME280;53000;45.182;5.736;2023-06-26T03:06:36;99377.56;;;25.17;47.54
66196;BME280;53000;45.182;5.736;2023-06-26T03:09:01;99373.97;;;25.17;48.16
66196;BME280;53000;45.182;5.736;2023-06-26T03:11:27;99378.13;;;25.14;48.26
66196;BME280;53000;45.182;5.736;2023-06-26T03:13:53;99376.47;;;25.13;48.15
66196;BME280;53000;45.182;5.736;2023-06-26T03:16:18;99377.53;;;25.12;48.31
66196;BME280;53000;45.182;5.736;2023-06-26T03:18:43;99377.81;;;25.10;48.52
66196;BME280;53000;45.182;5.736;2023-06-26T03:21:09;99376.72;;;25.12;48.84
66196;BME280;53000;45.182;5.736;2023-06-26T03:23:35;99380.00;;;25.08;48.69
66196;BME280;53000;45.182;5.736;2023-06-26T03:26:00;99388.25;;;25.03;48.09
66196;BME280;53000;45.182;5.736;2023-06-26T03:28:25;99387.69;;;25.01;48.58
66196;BME280;53000;45.182;5.736;2023-06-26T03:30:51;99383.50;;;24.99;48.53
66196;BME280;53000;45.182;5.736;2023-06-26T03:33:16;99382.38;;;24.95;48.43
66196;BME280;53000;45.182;5.736;2023-06-26T03:35:41;99385.09;;;24.89;48.63
66196;BME280;53000;45.182;5.736;2023-06-26T03:38:07;99387.53;;;24.86;48.91
66196;BME280;53000;45.182;5.736;2023-06-26T03:40:32;99385.28;;;24.83;48.82
66196;BME280;53000;45.182;5.736;2023-06-26T03:42:57;99384.19;;;24.84;48.30
66196;BME280;53000;45.182;5.736;2023-06-26T03:45:23;99389.97;;;24.82;48.60
66196;BME280;53000;45.182;5.736;2023-06-26T03:47:49;99385.81;;;24.80;48.69
66196;BME280;53000;45.182;5.736;2023-06-26T03:50:16;99387.75;;;24.79;49.21
66196;BME280;53000;45.182;5.736;2023-06-26T03:52:41;99391.88;;;24.77;48.92
66196;BME280;53000;45.182;5.736;2023-06-26T03:55:08;99402.63;;;24.73;49.66
66196;BME280;53000;45.182;5.736;2023-06-26T03:57:33;99399.22;;;24.66;49.22
66196;BME280;53000;45.182;5.736;2023-06-26T03:59:59;99394.19;;;24.63;49.93
66196;BME280;53000;45.182;5.736;2023-06-26T04:02:24;99403.88;;;24.60;49.48
66196;BME280;53000;45.182;5.736;2023-06-26T04:04:49;99402.19;;;24.59;49.12
66196;BME280;53000;45.182;5.736;2023-06-26T04:07:15;99399.94;;;24.56;49.52
66196;BME280;53000;45.182;5.736;2023-06-26T04:09:40;99402.44;;;24.58;49.08
66196;BME280;53000;45.182;5.736;2023-06-26T04:12:06;99414.34;;;24.58;49.19
66196;BME280;53000;45.182;5.736;2023-06-26T04:14:31;99409.66;;;24.59;49.08
66196;BME280;53000;45.182;5.736;2023-06-26T04:16:56;99417.94;;;24.59;48.77
66196;BME280;53000;45.182;5.736;2023-06-26T04:19:23;99413.78;;;24.56;49.81
66196;BME280;53000;45.182;5.736;2023-06-26T04:21:48;99414.88;;;24.55;49.29
66196;BME280;53000;45.182;5.736;2023-06-26T04:24:13;99425.94;;;24.55;49.66
66196;BME280;53000;45.182;5.736;2023-06-26T04:26:39;99427.28;;;24.53;49.47
66196;BME280;53000;45.182;5.736;2023-06-26T04:29:06;99428.56;;;24.45;49.88
66196;BME280;53000;45.182;5.736;2023-06-26T04:31:32;99422.63;;;24.36;49.86
66196;BME280;53000;45.182;5.736;2023-06-26T04:33:57;99428.41;;;24.35;49.15
66196;BME280;53000;45.182;5.736;2023-06-26T04:36:24;99425.66;;;24.35;49.95
66196;BME280;53000;45.182;5.736;2023-06-26T04:38:54;99430.34;;;24.34;49.90
66196;BME280;53000;45.182;5.736;2023-06-26T04:41:19;99435.31;;;24.32;49.18
66196;BME280;53000;45.182;5.736;2023-06-26T04:43:45;99429.75;;;24.32;49.32
66196;BME280;53000;45.182;5.736;2023-06-26T04:46:10;99437.53;;;24.35;49.68
66196;BME280;53000;45.182;5.736;2023-06-26T04:48:35;99435.59;;;24.36;49.53
66196;BME280;53000;45.182;5.736;2023-06-26T04:51:01;99435.34;;;24.37;50.21
66196;BME280;53000;45.182;5.736;2023-06-26T04:53:26;99438.13;;;24.37;49.25
66196;BME280;53000;45.182;5.736;2023-06-26T04:55:52;99435.94;;;24.39;49.41
66196;BME280;53000;45.182;5.736;2023-06-26T04:58:18;99440.69;;;24.44;50.01
66196;BME280;53000;45.182;5.736;2023-06-26T05:00:44;99431.31;;;24.45;49.67
66196;BME280;53000;45.182;5.736;2023-06-26T05:03:13;99432.41;;;24.44;49.92
66196;BME280;53000;45.182;5.736;2023-06-26T05:05:39;99433.25;;;24.44;49.60
66196;BME280;53000;45.182;5.736;2023-06-26T05:08:17;99439.94;;;24.48;49.32
66196;BME280;53000;45.182;5.736;2023-06-26T05:10:44;99429.75;;;24.49;50.03
66196;BME280;53000;45.182;5.736;2023-06-26T05:13:09;99436.44;;;24.53;49.66
66196;BME280;53000;45.182;5.736;2023-06-26T05:15:35;99437.84;;;24.56;49.87
66196;BME280;53000;45.182;5.736;2023-06-26T05:18:00;99435.91;;;24.56;49.61
66196;BME280;53000;45.182;5.736;2023-06-26T05:20:25;99435.13;;;24.61;49.47
66196;BME280;53000;45.182;5.736;2023-06-26T05:22:51;99440.16;;;24.64;49.87
66196;BME280;53000;45.182;5.736;2023-06-26T05:25:18;99445.75;;;24.69;49.74
66196;BME280;53000;45.182;5.736;2023-06-26T05:27:46;99436.91;;;24.72;49.85
66196;BME280;53000;45.182;5.736;2023-06-26T05:30:12;99440.03;;;24.76;49.51
66196;BME280;53000;45.182;5.736;2023-06-26T05:32:39;99442.28;;;24.79;49.53
66196;BME280;53000;45.182;5.736;2023-06-26T05:35:06;99437.34;;;24.81;49.73
66196;BME280;53000;45.182;5.736;2023-06-26T05:37:33;99437.63;;;24.84;49.50
66196;BME280;53000;45.182;5.736;2023-06-26T05:40:00;99441.81;;;24.87;49.13
66196;BME280;53000;45.182;5.736;2023-06-26T05:42:27;99440.47;;;24.89;49.92
66196;BME280;53000;45.182;5.736;2023-06-26T05:44:53;99443.25;;;24.89;49.90
66196;BME280;53000;45.182;5.736;2023-06-26T05:47:18;99444.06;;;24.90;49.90
66196;BME280;53000;45.182;5.736;2023-06-26T05:49:44;99439.94;;;24.93;49.88
66196;BME280;53000;45.182;5.736;2023-06-26T05:52:10;99440.25;;;24.96;49.30
66196;BME280;53000;45.182;5.736;2023-06-26T05:54:36;99440.56;;;25.00;49.57
66196;BME280;53000;45.182;5.736;2023-06-26T05:57:01;99443.06;;;25.01;49.25
66196;BME280;53000;45.182;5.736;2023-06-26T05:59:31;99437.03;;;25.04;49.18
66196;BME280;53000;45.182;5.736;2023-06-26T06:01:56;99436.50;;;25.07;49.33
66196;BME280;53000;45.182;5.736;2023-06-26T06:04:22;99436.53;;;25.13;49.21
66196;BME280;53000;45.182;5.736;2023-06-26T06:06:47;99433.78;;;25.13;48.98
66196;BME280;53000;45.182;5.736;2023-06-26T06:09:12;99429.09;;;25.13;49.21
66196;BME280;53000;45.182;5.736;2023-06-26T06:11:38;99427.16;;;25.14;49.42
66196;BME280;53000;45.182;5.736;2023-06-26T06:14:03;99428.81;;;25.15;49.45
66196;BME280;53000;45.182;5.736;2023-06-26T06:16:29;99429.38;;;25.17;49.45
66196;BME280;53000;45.182;5.736;2023-06-26T06:18:55;99424.19;;;25.20;49.86
66196;BME280;53000;45.182;5.736;2023-06-26T06:21:20;99426.44;;;25.23;49.46
66196;BME280;53000;45.182;5.736;2023-06-26T06:23:46;99427.88;;;25.26;49.60
66196;BME280;53000;45.182;5.736;2023-06-26T06:26:11;99420.63;;;25.25;49.43
66196;BME280;53000;45.182;5.736;2023-06-26T06:28:38;99412.91;;;25.27;49.26
66196;BME280;53000;45.182;5.736;2023-06-26T06:31:04;99416.25;;;25.29;49.24
66196;BME280;53000;45.182;5.736;2023-06-26T06:33:29;99421.25;;;25.32;48.76
66196;BME280;53000;45.182;5.736;2023-06-26T06:35:55;99420.47;;;25.37;49.04
66196;BME280;53000;45.182;5.736;2023-06-26T06:38:20;99421.63;;;25.41;48.98
66196;BME280;53000;45.182;5.736;2023-06-26T06:40:45;99418.31;;;25.44;48.35
66196;BME280;53000;45.182;5.736;2023-06-26T06:43:11;99412.22;;;25.47;48.75
66196;BME280;53000;45.182;5.736;2023-06-26T06:45:36;99423.66;;;25.56;48.34
66196;BME280;53000;45.182;5.736;2023-06-26T06:48:03;99419.56;;;25.63;48.18
66196;BME280;53000;45.182;5.736;2023-06-26T06:50:28;99429.34;;;25.71;47.89
66196;BME280;53000;45.182;5.736;2023-06-26T06:52:54;99412.19;;;25.74;47.10
66196;BME280;53000;45.182;5.736;2023-06-26T06:55:19;99417.19;;;25.77;47.12
66196;BME280;53000;45.182;5.736;2023-06-26T06:57:44;99416.97;;;25.84;46.54
66196;BME280;53000;45.182;5.736;2023-06-26T07:00:11;99411.13;;;25.80;46.75
66196;BME280;53000;45.182;5.736;2023-06-26T07:02:38;99413.91;;;25.85;47.14
66196;BME280;53000;45.182;5.736;2023-06-26T07:05:04;99420.13;;;25.93;46.92
66196;BME280;53000;45.182;5.736;2023-06-26T07:07:31;99420.16;;;26.03;47.38
66196;BME280;53000;45.182;5.736;2023-06-26T07:10:02;99415.22;;;26.10;46.59
66196;BME280;53000;45.182;5.736;2023-06-26T07:12:28;99420.22;;;26.13;46.13
66196;BME280;53000;45.182;5.736;2023-06-26T07:14:54;99419.41;;;26.13;45.35
66196;BME280;53000;45.182;5.736;2023-06-26T07:17:20;99423.81;;;26.14;45.75
66196;BME280;53000;45.182;5.736;2023-06-26T07:19:46;99420.28;;;26.18;45.32
66196;BME280;53000;45.182;5.736;2023-06-26T07:22:11;99416.41;;;26.24;45.77
66196;BME280;53000;45.182;5.736;2023-06-26T07:24:38;99416.41;;;26.24;45.19
66196;BME280;53000;45.182;5.736;2023-06-26T07:27:03;99408.13;;;26.29;44.98
66196;BME280;53000;45.182;5.736;2023-06-26T07:29:29;99405.34;;;26.35;45.18
66196;BME280;53000;45.182;5.736;2023-06-26T07:31:54;99405.13;;;26.46;45.05
66196;BME280;53000;45.182;5.736;2023-06-26T07:34:19;99413.19;;;27.37;44.78
66196;BME280;53000;45.182;5.736;2023-06-26T07:36:45;99418.69;;;29.39;42.10
66196;BME280;53000;45.182;5.736;2023-06-26T07:39:10;99403.81;;;31.22;37.52
66196;BME280;53000;45.182;5.736;2023-06-26T07:41:35;99407.47;;;32.49;36.49
66196;BME280;53000;45.182;5.736;2023-06-26T07:44:02;99416.25;;;33.70;35.79
66196;BME280;53000;45.182;5.736;2023-06-26T07:46:27;99414.94;;;34.79;34.77
66196;BME280;53000;45.182;5.736;2023-06-26T07:48:53;99411.69;;;35.55;32.89
66196;BME280;53000;45.182;5.736;2023-06-26T07:51:19;99414.00;;;36.35;31.29
66196;BME280;53000;45.182;5.736;2023-06-26T07:53:44;99409.00;;;37.00;31.29
66196;BME280;53000;45.182;5.736;2023-06-26T07:56:09;99414.16;;;37.40;30.57
66196;BME280;53000;45.182;5.736;2023-06-26T07:58:35;99405.31;;;37.96;30.13
66196;BME280;53000;45.182;5.736;2023-06-26T08:01:00;99404.75;;;38.61;28.78
66196;BME280;53000;45.182;5.736;2023-06-26T08:03:26;99402.53;;;39.19;28.89
66196;BME280;53000;45.182;5.736;2023-06-26T08:05:51;99396.16;;;39.79;28.35
66196;BME280;53000;45.182;5.736;2023-06-26T08:08:16;99410.25;;;40.35;27.85
66196;BME280;53000;45.182;5.736;2023-06-26T08:10:42;99402.50;;;40.83;26.02
66196;BME280;53000;45.182;5.736;2023-06-26T08:13:07;99408.06;;;40.96;25.45
66196;BME280;53000;45.182;5.736;2023-06-26T08:15:32;99411.25;;;40.94;25.21
66196;BME280;53000;45.182;5.736;2023-06-26T08:17:58;99407.66;;;40.78;24.56
66196;BME280;53000;45.182;5.736;2023-06-26T08:20:23;99406.91;;;40.65;25.28
66196;BME280;53000;45.182;5.736;2023-06-26T08:22:49;99411.13;;;40.71;25.00
66196;BME280;53000;45.182;5.736;2023-06-26T08:25:16;99419.47;;;40.80;24.11
66196;BME280;53000;45.182;5.736;2023-06-26T08:27:42;99414.16;;;40.78;25.48
66196;BME280;53000;45.182;5.736;2023-06-26T08:30:07;99411.47;;;40.85;24.27
66196;BME280;53000;45.182;5.736;2023-06-26T08:32:33;99404.16;;;40.68;24.51
66196;BME280;53000;45.182;5.736;2023-06-26T08:34:58;99400.63;;;40.56;24.78
66196;BME280;53000;45.182;5.736;2023-06-26T08:37:24;99399.00;;;40.39;24.98
66196;BME280;53000;45.182;5.736;2023-06-26T08:39:49;99394.56;;;39.94;24.66
66196;BME280;53000;45.182;5.736;2023-06-26T08:42:14;99391.84;;;39.41;24.43
66196;BME280;53000;45.182;5.736;2023-06-26T08:44:40;99386.91;;;38.85;25.92
66196;BME280;53000;45.182;5.736;2023-06-26T08:47:05;99386.34;;;38.55;26.29
66196;BME280;53000;45.182;5.736;2023-06-26T08:49:37;99390.09;;;38.46;26.30
66196;BME280;53000;45.182;5.736;2023-06-26T08:52:28;99380.44;;;38.72;25.86
66196;BME280;53000;45.182;5.736;2023-06-26T08:54:58;99378.53;;;38.89;26.14
66196;BME280;53000;45.182;5.736;2023-06-26T08:57:25;99379.31;;;39.01;26.11
66196;BME280;53000;45.182;5.736;2023-06-26T08:59:51;99374.56;;;39.18;25.70
66196;BME280;53000;45.182;5.736;2023-06-26T09:02:17;99378.28;;;39.34;26.27
66196;BME280;53000;45.182;5.736;2023-06-26T09:04:43;99383.94;;;39.46;25.90
66196;BME280;53000;45.182;5.736;2023-06-26T09:07:08;99383.06;;;39.74;26.15
66196;BME280;53000;45.182;5.736;2023-06-26T09:09:35;99385.31;;;39.97;25.54
66196;BME280;53000;45.182;5.736;2023-06-26T09:12:02;99381.13;;;40.22;25.70
66196;BME280;53000;45.182;5.736;2023-06-26T09:14:29;99381.53;;;40.37;25.67
66196;BME280;53000;45.182;5.736;2023-06-26T09:16:55;99381.84;;;40.51;25.61
66196;BME280;53000;45.182;5.736;2023-06-26T09:19:20;99387.97;;;40.53;25.04
66196;BME280;53000;45.182;5.736;2023-06-26T09:21:49;99388.63;;;40.46;25.62
66196;BME280;53000;45.182;5.736;2023-06-26T09:24:16;99385.06;;;40.18;24.36
66196;BME280;53000;45.182;5.736;2023-06-26T09:26:42;99380.84;;;39.67;25.50
66196;BME280;53000;45.182;5.736;2023-06-26T09:29:09;99385.84;;;39.30;25.71
66196;BME280;53000;45.182;5.736;2023-06-26T09:31:37;99378.97;;;39.03;26.23
66196;BME280;53000;45.182;5.736;2023-06-26T09:34:02;99378.75;;;38.83;26.32
66196;BME280;53000;45.182;5.736;2023-06-26T09:36:29;99375.03;;;38.55;27.43
66196;BME280;53000;45.182;5.736;2023-06-26T09:39:01;99375.81;;;38.31;27.02
66196;BME280;53000;45.182;5.736;2023-06-26T09:41:27;99370.38;;;38.01;27.48
66196;BME280;53000;45.182;5.736;2023-06-26T09:43:53;99375.06;;;37.97;27.40
66196;BME280;53000;45.182;5.736;2023-06-26T09:46:27;99363.06;;;38.00;27.58
66196;BME280;53000;45.182;5.736;2023-06-26T09:49:02;99367.69;;;38.04;27.54
66196;BME280;53000;45.182;5.736;2023-06-26T09:51:30;99369.16;;;37.90;27.32
66196;BME280;53000;45.182;5.736;2023-06-26T09:53:56;99370.16;;;37.60;27.86
66196;BME280;53000;45.182;5.736;2023-06-26T09:56:21;99364.66;;;37.43;28.39
66196;BME280;53000;45.182;5.736;2023-06-26T09:58:47;99361.72;;;37.39;28.61
66196;BME280;53000;45.182;5.736;2023-06-26T10:01:13;99365.69;;;37.38;28.30
66196;BME280;53000;45.182;5.736;2023-06-26T10:03:38;99362.56;;;37.19;28.13
66196;BME280;53000;45.182;5.736;2023-06-26T10:06:04;99362.00;;;37.04;28.70
66196;BME280;53000;45.182;5.736;2023-06-26T10:08:30;99362.09;;;36.87;28.58
66196;BME280;53000;45.182;5.736;2023-06-26T10:10:57;99356.75;;;36.73;29.02
66196;BME280;53000;45.182;5.736;2023-06-26T10:13:31;99353.44;;;36.71;29.10
66196;BME280;53000;45.182;5.736;2023-06-26T10:16:00;99351.59;;;36.75;29.07
66196;BME280;53000;45.182;5.736;2023-06-26T10:18:27;99349.19;;;36.86;28.88
66196;BME280;53000;45.182;5.736;2023-06-26T10:20:55;99349.44;;;36.93;28.64
66196;BME280;53000;45.182;5.736;2023-06-26T10:23:23;99349.66;;;36.88;29.00
66196;BME280;53000;45.182;5.736;2023-06-26T10:25:51;99352.16;;;36.90;28.85
66196;BME280;53000;45.182;5.736;2023-06-26T10:28:17;99353.31;;;36.89;28.28
66196;BME280;53000;45.182;5.736;2023-06-26T10:30:46;99349.34;;;36.90;29.04
66196;BME280;53000;45.182;5.736;2023-06-26T10:33:13;99354.69;;;36.82;27.80
66196;BME280;53000;45.182;5.736;2023-06-26T10:35:43;99361.03;;;36.79;28.89
66196;BME280;53000;45.182;5.736;2023-06-26T10:38:10;99357.72;;;36.77;28.63
66196;BME280;53000;45.182;5.736;2023-06-26T10:40:43;99359.78;;;36.68;28.98
66196;BME280;53000;45.182;5.736;2023-06-26T10:43:11;99352.03;;;36.56;29.07
66196;BME280;53000;45.182;5.736;2023-06-26T10:45:47;99340.75;;;36.56;30.13
66196;BME280;53000;45.182;5.736;2023-06-26T10:48:17;99345.41;;;36.52;29.45
66196;BME280;53000;45.182;5.736;2023-06-26T10:50:43;99352.78;;;36.44;29.88
66196;BME280;53000;45.182;5.736;2023-06-26T10:53:10;99344.44;;;36.48;29.90
66196;BME280;53000;45.182;5.736;2023-06-26T10:55:37;99341.06;;;36.55;30.61
66196;BME280;53000;45.182;5.736;2023-06-26T10:58:02;99334.47;;;36.51;30.29
66196;BME280;53000;45.182;5.736;2023-06-26T11:00:28;99345.31;;;36.40;30.77
66196;BME280;53000;45.182;5.736;2023-06-26T11:02:54;99330.66;;;36.26;30.67
66196;BME280;53000;45.182;5.736;2023-06-26T11:05:29;99324.19;;;36.25;31.01
66196;BME280;53000;45.182;5.736;2023-06-26T11:08:08;99329.41;;;36.14;30.60
66196;BME280;53000;45.182;5.736;2023-06-26T11:10:52;99325.41;;;36.07;30.73
66196;BME280;53000;45.182;5.736;2023-06-26T11:13:19;99331.63;;;35.91;30.99
66196;BME280;53000;45.182;5.736;2023-06-26T11:15:46;99324.69;;;35.80;30.94
66196;BME280;53000;45.182;5.736;2023-06-26T11:18:12;99335.84;;;35.68;31.26
66196;BME280;53000;45.182;5.736;2023-06-26T11:20:38;99324.22;;;35.60;31.92
66196;BME280;53000;45.182;5.736;2023-06-26T11:23:04;99330.34;;;35.62;32.04
66196;BME280;53000;45.182;5.736;2023-06-26T11:25:37;99331.19;;;35.63;31.20
66196;BME280;53000;45.182;5.736;2023-06-26T11:28:05;99316.47;;;35.66;31.36
66196;BME280;53000;45.182;5.736;2023-06-26T11:30:31;99331.34;;;35.67;31.41
66196;BME280;53000;45.182;5.736;2023-06-26T11:33:09;99319.94;;;35.63;31.95
66196;BME280;53000;45.182;5.736;2023-06-26T11:35:35;99321.41;;;35.60;31.64
66196;BME280;53000;45.182;5.736;2023-06-26T11:38:02;99313.63;;;35.57;31.72
66196;BME280;53000;45.182;5.736;2023-06-26T11:40:33;99311.47;;;35.63;31.52
66196;BME280;53000;45.182;5.736;2023-06-26T11:42:59;99321.91;;;35.71;31.88
66196;BME280;53000;45.182;5.736;2023-06-26T11:45:29;99309.31;;;35.69;32.16
66196;BME280;53000;45.182;5.736;2023-06-26T11:47:56;99306.19;;;35.61;32.00
66196;BME280;53000;45.182;5.736;2023-06-26T11:50:22;99318.09;;;35.58;31.35
66196;BME280;53000;45.182;5.736;2023-06-26T11:52:53;99305.84;;;35.63;31.40
66196;BME280;53000;45.182;5.736;2023-06-26T11:55:20;99315.78;;;35.69;31.58
66196;BME280;53000;45.182;5.736;2023-06-26T11:57:49;99298.03;;;35.77;31.90
66196;BME280;53000;45.182;5.736;2023-06-26T12:00:16;99294.19;;;35.82;31.38
66196;BME280;53000;45.182;5.736;2023-06-26T12:02:44;99309.66;;;35.76;31.20
66196;BME280;53000;45.182;5.736;2023-06-26T12:05:11;99302.69;;;35.73;31.48
66196;BME280;53000;45.182;5.736;2023-06-26T12:07:37;99310.78;;;35.75;31.30
66196;BME280;53000;45.182;5.736;2023-06-26T12:10:03;99300.19;;;35.80;31.73
66196;BME280;53000;45.182;5.736;2023-06-26T12:12:30;99311.25;;;35.86;31.18
66196;BME280;53000;45.182;5.736;2023-06-26T12:14:56;99297.81;;;35.91;30.87
66196;BME280;53000;45.182;5.736;2023-06-26T12:17:23;99308.72;;;36.01;31.24
66196;BME280;53000;45.182;5.736;2023-06-26T12:19:50;99300.38;;;36.05;30.54
66196;BME280;53000;45.182;5.736;2023-06-26T12:22:17;99290.28;;;36.04;30.64
66196;BME280;53000;45.182;5.736;2023-06-26T12:24:43;99307.69;;;36.06;30.97
66196;BME280;53000;45.182;5.736;2023-06-26T12:27:11;99295.94;;;36.04;30.37
66196;BME280;53000;45.182;5.736;2023-06-26T12:29:39;99299.28;;;35.97;30.71
66196;BME280;53000;45.182;5.736;2023-06-26T12:32:09;99302.97;;;35.89;30.27
66196;BME280;53000;45.182;5.736;2023-06-26T12:34:37;99297.16;;;35.86;30.76
66196;BME280;53000;45.182;5.736;2023-06-26T12:37:07;99288.38;;;35.87;30.91
66196;BME280;53000;45.182;5.736;2023-06-26T12:42:23;99292.19;;;35.91;31.62
66196;BME280;53000;45.182;5.736;2023-06-26T12:44:50;99293.16;;;35.95;30.82
66196;BME280;53000;45.182;5.736;2023-06-26T12:47:17;99284.84;;;35.99;30.32
66196;BME280;53000;45.182;5.736;2023-06-26T12:49:44;99273.03;;;36.06;30.58
66196;BME280;53000;45.182;5.736;2023-06-26T12:52:12;99277.84;;;36.05;29.99
66196;BME280;53000;45.182;5.736;2023-06-26T12:54:42;99278.06;;;36.00;30.70
66196;BME280;53000;45.182;5.736;2023-06-26T12:57:09;99279.41;;;35.94;30.57
66196;BME280;53000;45.182;5.736;2023-06-26T12:59:36;99281.94;;;35.87;30.85
66196;BME280;53000;45.182;5.736;2023-06-26T13:02:02;99280.75;;;35.88;30.61
66196;BME280;53000;45.182;5.736;2023-06-26T13:04:28;99271.81;;;35.86;30.46